Time;durP1;ratioP1;P1;durP2;ratioP2;P2;SDS_P1;SDS_P2;PMS_P1;PMS_P2;Temp;Humidity;BMP_temperature;BMP_pressure;BME280_temperature;BME280_humidity;BME280_pressure;Samples;Min_cycle;Max_cycle;Signal;HPM_P1;HPM_P2
2023/09/16 00:01:38;;;;;;;5.70;4.53;;;;;;;;;;5008888;28;20186;-49
2023/09/16 00:04:05;;;;;;;5.47;4.37;;;;;;;;;;5008226;28;20186;-49
2023/09/16 00:06:31;;;;;;;5.53;5.00;;;;;;;;;;5007516;28;20225;-49
2023/09/16 00:08:57;;;;;;;4.90;4.37;;;;;;;;;;5007401;28;20190;-49
2023/09/16 00:11:25;;;;;;;4.20;3.90;;;;;;;;;;5008026;28;20240;-49
2023/09/16 00:13:51;;;;;;;4.40;4.00;;;;;;;;;;4989901;28;20216;-49
2023/09/16 00:16:18;;;;;;;5.53;5.03;;;;;;;;;;5007440;28;20178;-49
2023/09/16 00:18:44;;;;;;;5.30;4.27;;;;;;;;;;5007361;28;20236;-49
2023/09/16 00:21:11;;;;;;;4.10;3.80;;;;;;;;;;5006712;28;20178;-50
2023/09/16 00:23:38;;;;;;;7.17;4.63;;;;;;;;;;5006606;28;20217;-50
2023/09/16 00:26:04;;;;;;;4.27;3.80;;;;;;;;;;4985175;28;20197;-49
2023/09/16 00:28:35;;;;;;;6.60;4.53;;;;;;;;;;5004113;28;20722;-49
2023/09/16 00:31:02;;;;;;;5.00;4.43;;;;;;;;;;5005844;28;20305;-49
2023/09/16 00:33:29;;;;;;;4.93;4.40;;;;;;;;;;5007361;28;20308;-49
2023/09/16 00:35:56;;;;;;;4.10;3.77;;;;;;;;;;5006867;28;20282;-49
2023/09/16 00:38:22;;;;;;;4.73;4.33;;;;;;;;;;5006457;28;20578;-49
2023/09/16 00:40:49;;;;;;;8.73;4.80;;;;;;;;;;5004239;28;20493;-49
2023/09/16 00:43:15;;;;;;;5.10;4.60;;;;;;;;;;5005838;28;20190;-49
2023/09/16 00:45:41;;;;;;;5.53;4.13;;;;;;;;;;4999698;28;20268;-49
2023/09/16 00:48:08;;;;;;;4.10;3.80;;;;;;;;;;5005959;28;20190;-49
2023/09/16 00:50:34;;;;;;;5.87;3.97;;;;;;;;;;5005120;28;20206;-49
2023/09/16 00:53:00;;;;;;;4.93;4.10;;;;;;;;;;5003086;28;20652;-49
2023/09/16 00:55:28;;;;;;;5.93;4.23;;;;;;;;;;5002100;28;20197;-49
2023/09/16 00:57:54;;;;;;;4.03;3.67;;;;;;;;;;5005565;28;20241;-49
2023/09/16 01:00:26;;;;;;;4.33;3.93;;;;;;;;;;5002856;28;20191;-48
2023/09/16 01:02:53;;;;;;;6.53;4.50;;;;;;;;;;5005357;28;20275;-48
2023/09/16 01:05:19;;;;;;;5.60;4.27;;;;;;;;;;5002111;28;20652;-48
2023/09/16 01:07:46;;;;;;;4.50;4.10;;;;;;;;;;5004183;28;20680;-48
2023/09/16 01:10:18;;;;;;;4.40;4.00;;;;;;;;;;4999246;28;20230;-48
2023/09/16 01:12:45;;;;;;;6.50;4.40;;;;;;;;;;4996337;28;20181;-48
2023/09/16 01:15:14;;;;;;;4.57;3.97;;;;;;;;;;5006943;28;20229;-49
2023/09/16 01:17:48;;;;;;;4.93;4.53;;;;;;;;;;4987960;28;20182;-48
2023/09/16 01:20:15;;;;;;;5.03;4.13;;;;;;;;;;5004036;28;20185;-48
2023/09/16 01:22:45;;;;;;;5.07;4.10;;;;;;;;;;5003324;28;20182;-48
2023/09/16 01:25:12;;;;;;;6.40;4.33;;;;;;;;;;5006365;28;20243;-49
2023/09/16 01:27:38;;;;;;;5.43;4.23;;;;;;;;;;4999331;28;21017;-49
2023/09/16 01:30:06;;;;;;;6.83;4.30;;;;;;;;;;5005352;28;20205;-49
2023/09/16 01:32:34;;;;;;;5.57;4.37;;;;;;;;;;5005758;28;20889;-48
2023/09/16 01:35:01;;;;;;;4.93;4.47;;;;;;;;;;5005295;28;20620;-48
2023/09/16 01:37:28;;;;;;;6.27;3.93;;;;;;;;;;5004962;28;20190;-50
2023/09/16 01:39:59;;;;;;;5.20;3.90;;;;;;;;;;5004960;28;20178;-49
2023/09/16 01:42:28;;;;;;;5.33;4.37;;;;;;;;;;5003526;28;20213;-48
2023/09/16 01:44:55;;;;;;;5.93;4.30;;;;;;;;;;5008705;28;20174;-49
2023/09/16 01:47:21;;;;;;;4.33;3.93;;;;;;;;;;5003914;28;20186;-50
2023/09/16 01:49:47;;;;;;;5.30;4.50;;;;;;;;;;5008857;28;20250;-48
2023/09/16 01:52:16;;;;;;;7.87;4.50;;;;;;;;;;5006787;28;20186;-49
2023/09/16 01:54:42;;;;;;;6.23;4.30;;;;;;;;;;5010093;28;20252;-49
2023/09/16 01:57:08;;;;;;;4.93;3.90;;;;;;;;;;5008294;28;20322;-48
2023/09/16 01:59:34;;;;;;;6.67;4.50;;;;;;;;;;5004916;28;20178;-48
2023/09/16 02:02:00;;;;;;;4.83;4.33;;;;;;;;;;5007679;28;20189;-48
2023/09/16 02:04:27;;;;;;;4.80;4.30;;;;;;;;;;5008399;28;20608;-49
2023/09/16 02:06:53;;;;;;;4.57;4.17;;;;;;;;;;5010681;28;20175;-49
2023/09/16 02:09:19;;;;;;;4.63;4.03;;;;;;;;;;5009452;28;20588;-49
2023/09/16 02:11:45;;;;;;;5.13;3.90;;;;;;;;;;5009042;28;20641;-50
2023/09/16 02:14:12;;;;;;;5.93;4.33;;;;;;;;;;5009841;28;20206;-49
2023/09/16 02:16:38;;;;;;;8.30;4.20;;;;;;;;;;5010690;28;20693;-48
2023/09/16 02:19:05;;;;;;;7.40;4.20;;;;;;;;;;5009052;28;20265;-48
2023/09/16 02:21:32;;;;;;;8.07;4.37;;;;;;;;;;5002217;28;20270;-48
2023/09/16 02:23:59;;;;;;;4.33;3.67;;;;;;;;;;5008443;28;20545;-48
2023/09/16 02:26:25;;;;;;;4.33;3.93;;;;;;;;;;5009426;28;20697;-48
2023/09/16 02:28:51;;;;;;;4.80;4.13;;;;;;;;;;5009432;28;20783;-48
2023/09/16 02:31:17;;;;;;;8.80;4.10;;;;;;;;;;5010431;28;20260;-48
2023/09/16 02:33:44;;;;;;;4.30;3.90;;;;;;;;;;5009028;28;20203;-48
2023/09/16 02:36:10;;;;;;;6.10;4.43;;;;;;;;;;5008945;28;20183;-48
2023/09/16 02:38:37;;;;;;;6.63;4.43;;;;;;;;;;5008818;28;20197;-48
2023/09/16 02:41:04;;;;;;;4.63;4.10;;;;;;;;;;5009858;28;20187;-48
2023/09/16 02:43:31;;;;;;;4.57;4.13;;;;;;;;;;5009327;28;20553;-48
2023/09/16 02:45:57;;;;;;;9.73;3.97;;;;;;;;;;5009544;28;20191;-48
2023/09/16 02:48:23;;;;;;;8.53;5.07;;;;;;;;;;5008367;28;20635;-47
2023/09/16 02:50:50;;;;;;;4.40;4.00;;;;;;;;;;5008449;28;20198;-48
2023/09/16 02:53:17;;;;;;;4.40;4.10;;;;;;;;;;5008487;28;20720;-48
2023/09/16 02:55:44;;;;;;;5.83;3.90;;;;;;;;;;5009544;28;20657;-48
2023/09/16 02:58:10;;;;;;;9.73;4.13;;;;;;;;;;5009289;28;20179;-48
2023/09/16 03:00:36;;;;;;;5.23;3.80;;;;;;;;;;5009834;28;20183;-47
2023/09/16 03:03:02;;;;;;;4.50;4.17;;;;;;;;;;5008992;28;20182;-48
2023/09/16 03:05:30;;;;;;;5.10;4.33;;;;;;;;;;5008724;28;20545;-47
2023/09/16 03:07:56;;;;;;;4.43;3.90;;;;;;;;;;5008354;28;20184;-47
2023/09/16 03:10:22;;;;;;;4.83;4.43;;;;;;;;;;5009545;28;20183;-48
2023/09/16 03:12:48;;;;;;;6.20;4.40;;;;;;;;;;5002686;28;20717;-47
2023/09/16 03:15:14;;;;;;;5.33;4.30;;;;;;;;;;5002288;28;20210;-47
2023/09/16 03:17:40;;;;;;;7.37;4.77;;;;;;;;;;5005959;28;20212;-48
2023/09/16 03:20:07;;;;;;;4.47;4.07;;;;;;;;;;5005109;28;20198;-47
2023/09/16 03:22:33;;;;;;;6.17;4.67;;;;;;;;;;5007485;28;20175;-48
2023/09/16 03:24:59;;;;;;;5.67;4.23;;;;;;;;;;5007247;28;20599;-48
2023/09/16 03:27:25;;;;;;;4.60;4.20;;;;;;;;;;5008685;28;20194;-47
2023/09/16 03:29:52;;;;;;;7.30;4.33;;;;;;;;;;5009345;28;20292;-47
2023/09/16 03:32:18;;;;;;;5.03;4.30;;;;;;;;;;5009375;28;20186;-47
2023/09/16 03:34:44;;;;;;;7.13;4.93;;;;;;;;;;5008223;28;20612;-48
2023/09/16 03:37:10;;;;;;;5.83;4.30;;;;;;;;;;5007403;28;20278;-47
2023/09/16 03:39:36;;;;;;;5.40;4.90;;;;;;;;;;5008439;28;20260;-47
2023/09/16 03:42:03;;;;;;;6.10;4.53;;;;;;;;;;5008653;28;20190;-47
2023/09/16 03:44:29;;;;;;;6.50;4.20;;;;;;;;;;5006382;28;20521;-48
2023/09/16 03:46:55;;;;;;;6.93;4.50;;;;;;;;;;5008751;28;20193;-48
2023/09/16 03:49:22;;;;;;;5.23;4.73;;;;;;;;;;5008742;28;20748;-48
2023/09/16 03:51:48;;;;;;;5.63;5.13;;;;;;;;;;4990695;28;20281;-48
2023/09/16 03:54:14;;;;;;;6.83;4.70;;;;;;;;;;5005837;28;20202;-48
2023/09/16 03:56:41;;;;;;;4.97;4.57;;;;;;;;;;5007365;28;20186;-47
2023/09/16 03:59:07;;;;;;;4.90;4.50;;;;;;;;;;5007797;28;20265;-49
2023/09/16 04:01:33;;;;;;;4.90;4.50;;;;;;;;;;5008303;28;20195;-48
2023/09/16 04:03:59;;;;;;;4.60;4.20;;;;;;;;;;5007622;28;20186;-48
2023/09/16 04:06:26;;;;;;;5.20;4.80;;;;;;;;;;5007135;28;20179;-49
2023/09/16 04:08:52;;;;;;;8.13;5.03;;;;;;;;;;5006769;28;20527;-48
2023/09/16 04:11:19;;;;;;;5.33;4.83;;;;;;;;;;5007026;28;20183;-48
2023/09/16 04:13:45;;;;;;;8.33;4.90;;;;;;;;;;5008126;28;20224;-49
2023/09/16 04:16:11;;;;;;;6.43;4.50;;;;;;;;;;5007594;28;20185;-49
2023/09/16 04:18:38;;;;;;;6.60;4.83;;;;;;;;;;5008059;28;20178;-49
2023/09/16 04:21:04;;;;;;;6.00;5.17;;;;;;;;;;5006845;28;20280;-48
2023/09/16 04:23:30;;;;;;;5.27;4.23;;;;;;;;;;5006197;28;20666;-49
2023/09/16 04:25:57;;;;;;;6.40;4.77;;;;;;;;;;5006264;28;20185;-49
2023/09/16 04:28:23;;;;;;;5.20;4.80;;;;;;;;;;5006639;28;20598;-49
2023/09/16 04:30:50;;;;;;;4.73;4.37;;;;;;;;;;5008275;28;20207;-49
2023/09/16 04:33:18;;;;;;;6.50;5.93;;;;;;;;;;5007062;28;22092;-49
2023/09/16 04:35:48;;;;;;;5.07;4.67;;;;;;;;;;5007173;28;20186;-49
2023/09/16 04:38:15;;;;;;;4.97;4.50;;;;;;;;;;5007359;28;20289;-49
2023/09/16 04:40:42;;;;;;;5.67;4.77;;;;;;;;;;5007944;28;20754;-49
2023/09/16 04:43:08;;;;;;;4.83;4.40;;;;;;;;;;5007489;28;20178;-49
2023/09/16 04:45:35;;;;;;;7.17;5.00;;;;;;;;;;5008782;28;20269;-49
2023/09/16 04:48:02;;;;;;;5.33;4.83;;;;;;;;;;4990050;28;20201;-49
2023/09/16 04:50:29;;;;;;;7.33;4.40;;;;;;;;;;5006056;28;20228;-49
2023/09/16 04:52:58;;;;;;;7.97;5.97;;;;;;;;;;5005940;28;20776;-49
2023/09/16 04:55:25;;;;;;;5.20;4.80;;;;;;;;;;5005085;28;20210;-48
2023/09/16 04:57:51;;;;;;;5.30;4.80;;;;;;;;;;5001921;28;20178;-49
2023/09/16 05:00:17;;;;;;;6.33;5.17;;;;;;;;;;5004249;28;20265;-49
2023/09/16 05:02:48;;;;;;;5.50;5.00;;;;;;;;;;5004383;28;20205;-48
2023/09/16 05:05:15;;;;;;;5.80;5.30;;;;;;;;;;5005823;28;20191;-49
2023/09/16 05:07:41;;;;;;;5.40;4.90;;;;;;;;;;5005335;28;20205;-49
2023/09/16 05:10:08;;;;;;;5.50;4.90;;;;;;;;;;5007042;28;20507;-49
2023/09/16 05:12:35;;;;;;;5.50;4.93;;;;;;;;;;5007328;28;20186;-49
2023/09/16 05:15:01;;;;;;;5.70;5.10;;;;;;;;;;5007158;28;20210;-49
2023/09/16 05:17:27;;;;;;;5.87;5.37;;;;;;;;;;5007777;28;20186;-49
2023/09/16 05:19:53;;;;;;;5.90;5.30;;;;;;;;;;5007325;28;20182;-49
2023/09/16 05:22:19;;;;;;;5.80;5.27;;;;;;;;;;5005642;28;20186;-49
2023/09/16 05:24:46;;;;;;;5.83;5.33;;;;;;;;;;5006626;28;20190;-48
2023/09/16 05:27:12;;;;;;;5.20;4.80;;;;;;;;;;5005704;28;20637;-49
2023/09/16 05:29:38;;;;;;;5.73;5.23;;;;;;;;;;5005358;28;20701;-48
2023/09/16 05:32:05;;;;;;;5.90;5.30;;;;;;;;;;5004656;28;20239;-48
2023/09/16 05:34:31;;;;;;;6.63;5.90;;;;;;;;;;5006473;28;20208;-48
2023/09/16 05:36:57;;;;;;;6.03;5.43;;;;;;;;;;5005726;28;20186;-50
2023/09/16 05:39:23;;;;;;;5.83;5.23;;;;;;;;;;5004287;28;20212;-50
2023/09/16 05:41:49;;;;;;;5.73;5.20;;;;;;;;;;5006765;28;20521;-50
2023/09/16 05:44:21;;;;;;;5.93;5.33;;;;;;;;;;5006860;28;20298;-49
2023/09/16 05:46:48;;;;;;;6.27;5.63;;;;;;;;;;5005135;28;20584;-48
2023/09/16 05:49:14;;;;;;;6.73;6.03;;;;;;;;;;4999640;28;20202;-49
2023/09/16 05:51:42;;;;;;;6.80;6.13;;;;;;;;;;5004759;28;20281;-49
2023/09/16 05:54:08;;;;;;;6.90;5.93;;;;;;;;;;5005261;28;20214;-49
2023/09/16 05:56:37;;;;;;;8.20;6.60;;;;;;;;;;5004582;28;20503;-51
2023/09/16 05:59:03;;;;;;;6.73;6.10;;;;;;;;;;5004534;28;20261;-49
2023/09/16 06:01:29;;;;;;;7.20;6.40;;;;;;;;;;5006883;28;20410;-49
2023/09/16 06:03:55;;;;;;;7.40;6.00;;;;;;;;;;5002574;28;20186;-49
2023/09/16 06:06:22;;;;;;;5.80;5.13;;;;;;;;;;5003454;28;20357;-49
2023/09/16 06:08:48;;;;;;;7.50;5.57;;;;;;;;;;4983894;28;20669;-50
2023/09/16 06:11:14;;;;;;;8.80;5.90;;;;;;;;;;5005793;28;20658;-50
2023/09/16 06:13:40;;;;;;;7.33;6.53;;;;;;;;;;5006697;28;20196;-49
2023/09/16 06:16:07;;;;;;;8.13;6.70;;;;;;;;;;5005978;28;20191;-49
2023/09/16 06:18:34;;;;;;;6.73;6.13;;;;;;;;;;5004575;28;20544;-49
2023/09/16 06:21:00;;;;;;;7.77;6.97;;;;;;;;;;4999799;28;20652;-50
2023/09/16 06:23:27;;;;;;;7.57;6.87;;;;;;;;;;4982994;28;20249;-50
2023/09/16 06:25:53;;;;;;;9.00;6.40;;;;;;;;;;5003286;28;20219;-49
2023/09/16 06:28:19;;;;;;;8.43;7.10;;;;;;;;;;5004512;28;21009;-50
2023/09/16 06:30:45;;;;;;;7.50;6.77;;;;;;;;;;5007446;28;20209;-49
2023/09/16 06:33:12;;;;;;;7.50;6.80;;;;;;;;;;5008199;28;20186;-49
2023/09/16 06:35:38;;;;;;;7.43;6.60;;;;;;;;;;5002983;28;20178;-49
2023/09/16 06:38:04;;;;;;;8.17;5.70;;;;;;;;;;4987319;28;20178;-53
2023/09/16 06:40:30;;;;;;;6.83;6.03;;;;;;;;;;5008764;28;20192;-49
2023/09/16 06:42:56;;;;;;;8.07;6.90;;;;;;;;;;5008616;28;20221;-49
2023/09/16 06:45:22;;;;;;;7.03;6.33;;;;;;;;;;5004180;28;20182;-50
2023/09/16 06:47:51;;;;;;;6.60;6.00;;;;;;;;;;5009622;28;20183;-50
2023/09/16 06:50:17;;;;;;;7.00;5.73;;;;;;;;;;5006267;28;20332;-50
2023/09/16 06:52:44;;;;;;;8.00;5.80;;;;;;;;;;5005063;28;20179;-50
2023/09/16 06:55:10;;;;;;;7.57;6.87;;;;;;;;;;5004175;28;20222;-50
2023/09/16 06:57:37;;;;;;;6.53;5.93;;;;;;;;;;5005411;28;20420;-50
2023/09/16 07:00:03;;;;;;;6.57;5.97;;;;;;;;;;5007027;28;20175;-50
2023/09/16 07:02:29;;;;;;;6.70;5.80;;;;;;;;;;5002184;28;20587;-51
2023/09/16 07:04:56;;;;;;;7.93;5.77;;;;;;;;;;5007685;28;20568;-50
2023/09/16 07:07:23;;;;;;;11.63;7.07;;;;;;;;;;5002276;28;20218;-50
2023/09/16 07:09:54;;;;;;;7.70;5.63;;;;;;;;;;5008822;28;20190;-50
2023/09/16 07:12:20;;;;;;;6.20;5.60;;;;;;;;;;5004559;28;20590;-50
2023/09/16 07:14:46;;;;;;;6.27;5.67;;;;;;;;;;5005795;28;20299;-52
2023/09/16 07:17:13;;;;;;;8.07;6.27;;;;;;;;;;5007119;28;20181;-50
2023/09/16 07:19:39;;;;;;;9.70;6.03;;;;;;;;;;5008631;28;20174;-51
2023/09/16 07:22:05;;;;;;;6.63;5.83;;;;;;;;;;5004497;28;20801;-50
2023/09/16 07:24:31;;;;;;;6.00;5.40;;;;;;;;;;5007607;28;20174;-50
2023/09/16 07:26:57;;;;;;;9.90;7.00;;;;;;;;;;5007664;28;20186;-50
2023/09/16 07:29:31;;;;;;;6.03;5.53;;;;;;;;;;5004113;28;20218;-50
2023/09/16 07:31:57;;;;;;;7.03;6.43;;;;;;;;;;5008355;28;20266;-50
2023/09/16 07:34:25;;;;;;;5.73;5.23;;;;;;;;;;5005290;28;20547;-51
2023/09/16 07:36:52;;;;;;;6.60;6.00;;;;;;;;;;5004150;28;20178;-50
2023/09/16 07:39:18;;;;;;;6.00;5.40;;;;;;;;;;5007061;28;20229;-50
2023/09/16 07:41:44;;;;;;;6.10;5.03;;;;;;;;;;5005710;28;20179;-49
2023/09/16 07:44:11;;;;;;;6.70;6.10;;;;;;;;;;5009804;28;20190;-48
2023/09/16 07:46:37;;;;;;;7.23;5.77;;;;;;;;;;5009734;28;20189;-50
2023/09/16 07:49:03;;;;;;;5.77;5.17;;;;;;;;;;5010184;28;20167;-50
2023/09/16 07:51:29;;;;;;;6.27;5.67;;;;;;;;;;5008481;28;20249;-50
2023/09/16 07:53:58;;;;;;;6.40;5.13;;;;;;;;;;5009405;28;20613;-50
2023/09/16 07:56:25;;;;;;;6.90;5.23;;;;;;;;;;5007362;28;20634;-50
2023/09/16 07:58:51;;;;;;;6.50;5.20;;;;;;;;;;5010353;28;20234;-50
2023/09/16 08:01:17;;;;;;;6.23;5.27;;;;;;;;;;5009983;28;20642;-51
2023/09/16 08:03:43;;;;;;;5.17;4.70;;;;;;;;;;5009105;28;20191;-50
2023/09/16 08:06:10;;;;;;;5.32;4.82;;;;;;;;;;5008093;28;20431;-50
2023/09/16 08:08:36;;;;;;;5.00;4.60;;;;;;;;;;5008176;28;20178;-49
2023/09/16 08:11:05;;;;;;;6.43;4.90;;;;;;;;;;4988986;28;20182;-50
2023/09/16 08:13:31;;;;;;;4.97;4.57;;;;;;;;;;5008540;28;20215;-50
2023/09/16 08:16:00;;;;;;;4.37;3.93;;;;;;;;;;5010398;28;20649;-50
2023/09/16 08:18:26;;;;;;;4.40;4.10;;;;;;;;;;4992926;28;20168;-50
2023/09/16 08:20:52;;;;;;;4.77;4.30;;;;;;;;;;4997165;28;20180;-49
2023/09/16 08:23:18;;;;;;;4.63;4.23;;;;;;;;;;5002271;28;20187;-50
2023/09/16 08:25:45;;;;;;;4.87;4.37;;;;;;;;;;5002992;28;20175;-53
2023/09/16 08:28:11;;;;;;;5.30;4.77;;;;;;;;;;5002776;28;20720;-50
2023/09/16 08:30:37;;;;;;;4.73;4.00;;;;;;;;;;5001181;28;20217;-50
2023/09/16 08:33:03;;;;;;;4.40;4.00;;;;;;;;;;5006205;28;20273;-50
2023/09/16 08:35:30;;;;;;;4.70;4.20;;;;;;;;;;5005853;28;20206;-54
2023/09/16 08:37:58;;;;;;;4.40;4.00;;;;;;;;;;5007564;28;20335;-50
2023/09/16 08:40:25;;;;;;;4.53;4.03;;;;;;;;;;5006353;28;20555;-51
2023/09/16 08:43:14;;;;;;;5.03;4.20;;;;;;;;;;5005488;28;20260;-50
2023/09/16 08:45:43;;;;;;;4.40;4.00;;;;;;;;;;5004068;28;20228;-51
2023/09/16 08:48:13;;;;;;;5.20;4.30;;;;;;;;;;5006745;28;20672;-52
2023/09/16 08:50:40;;;;;;;5.40;4.90;;;;;;;;;;5005836;28;20552;-51
2023/09/16 08:53:08;;;;;;;4.63;4.30;;;;;;;;;;5004423;28;20187;-51
2023/09/16 08:55:35;;;;;;;5.93;4.80;;;;;;;;;;5004831;28;20253;-52
2023/09/16 08:58:09;;;;;;;4.67;4.27;;;;;;;;;;5008267;28;20185;-50
2023/09/16 09:00:39;;;;;;;5.40;4.43;;;;;;;;;;5002751;28;20616;-53
2023/09/16 09:03:05;;;;;;;4.90;4.50;;;;;;;;;;5004597;28;20179;-51
2023/09/16 09:05:33;;;;;;;4.77;4.37;;;;;;;;;;5004025;28;20201;-51
2023/09/16 09:07:59;;;;;;;4.67;4.27;;;;;;;;;;5004899;28;20190;-51
2023/09/16 09:10:25;;;;;;;4.60;4.20;;;;;;;;;;5001249;28;20194;-51
2023/09/16 09:12:51;;;;;;;4.90;4.50;;;;;;;;;;5000887;28;20198;-51
2023/09/16 09:15:17;;;;;;;5.47;3.87;;;;;;;;;;5005617;28;20236;-51
2023/09/16 09:17:45;;;;;;;5.83;4.10;;;;;;;;;;5005143;28;20254;-51
2023/09/16 09:20:15;;;;;;;5.23;4.80;;;;;;;;;;5001891;28;20583;-51
2023/09/16 09:22:42;;;;;;;5.07;4.50;;;;;;;;;;5004619;28;20654;-51
2023/09/16 09:25:08;;;;;;;4.37;3.80;;;;;;;;;;5003037;28;20182;-51
2023/09/16 09:27:35;;;;;;;4.63;4.23;;;;;;;;;;5005160;28;20190;-51
2023/09/16 09:30:04;;;;;;;4.53;4.17;;;;;;;;;;5004897;28;20301;-51
2023/09/16 09:32:31;;;;;;;4.13;3.73;;;;;;;;;;5001557;28;20240;-54
2023/09/16 09:34:58;;;;;;;4.87;4.40;;;;;;;;;;5004605;28;20294;-51
2023/09/16 09:37:24;;;;;;;4.47;4.07;;;;;;;;;;5003712;28;20727;-52
2023/09/16 09:40:07;;;;;;;5.67;5.13;;;;;;;;;;5002892;28;20544;-54
2023/09/16 09:42:33;;;;;;;6.57;5.00;;;;;;;;;;5004694;28;20549;-54
2023/09/16 09:45:02;;;;;;;4.33;3.93;;;;;;;;;;4999328;28;20190;-53
2023/09/16 09:47:29;;;;;;;5.50;4.97;;;;;;;;;;5004384;28;20190;-53
2023/09/16 09:49:55;;;;;;;4.53;4.13;;;;;;;;;;5002953;28;20274;-53
2023/09/16 09:52:22;;;;;;;4.73;4.33;;;;;;;;;;5003200;28;20281;-53
2023/09/16 09:54:52;;;;;;;4.97;4.40;;;;;;;;;;4983868;28;20213;-52
2023/09/16 09:57:18;;;;;;;6.80;5.20;;;;;;;;;;5000341;28;20174;-53
2023/09/16 09:59:45;;;;;;;5.03;4.63;;;;;;;;;;4999918;28;20206;-52
2023/09/16 10:02:11;;;;;;;4.90;4.50;;;;;;;;;;5003184;28;20186;-54
2023/09/16 10:04:40;;;;;;;7.17;4.27;;;;;;;;;;5003196;28;20195;-53
2023/09/16 10:07:07;;;;;;;4.50;4.10;;;;;;;;;;5001540;28;20706;-53
2023/09/16 10:09:33;;;;;;;5.00;4.60;;;;;;;;;;5006270;28;20599;-53
2023/09/16 10:11:59;;;;;;;4.93;4.53;;;;;;;;;;5010465;28;20550;-53
2023/09/16 10:14:25;;;;;;;5.23;4.83;;;;;;;;;;5010922;28;20210;-53
2023/09/16 10:16:52;;;;;;;5.30;4.80;;;;;;;;;;5009437;28;20199;-52
2023/09/16 10:19:21;;;;;;;5.00;4.40;;;;;;;;;;5009169;28;20197;-53
2023/09/16 10:21:47;;;;;;;5.80;4.83;;;;;;;;;;5006268;28;20795;-52
2023/09/16 10:24:13;;;;;;;4.93;4.53;;;;;;;;;;5007874;28;20607;-53
2023/09/16 10:26:40;;;;;;;4.67;4.27;;;;;;;;;;5009983;28;20190;-52
2023/09/16 10:29:07;;;;;;;4.63;4.30;;;;;;;;;;5009816;28;20266;-52
2023/09/16 10:31:33;;;;;;;4.67;4.37;;;;;;;;;;5008206;28;20662;-53
2023/09/16 10:34:02;;;;;;;5.50;5.03;;;;;;;;;;5008174;28;20557;-52
2023/09/16 10:36:29;;;;;;;5.00;4.60;;;;;;;;;;5007467;28;20186;-52
2023/09/16 10:38:55;;;;;;;5.40;4.73;;;;;;;;;;5008586;28;20210;-53
2023/09/16 10:41:22;;;;;;;4.90;4.40;;;;;;;;;;5009559;28;20270;-52
2023/09/16 10:43:48;;;;;;;5.63;5.00;;;;;;;;;;5008441;28;20273;-52
2023/09/16 10:46:14;;;;;;;5.13;4.63;;;;;;;;;;5008339;28;20197;-52
2023/09/16 10:48:41;;;;;;;5.57;4.90;;;;;;;;;;5007723;28;20183;-53
2023/09/16 10:51:11;;;;;;;5.50;5.00;;;;;;;;;;5007643;28;20198;-53
2023/09/16 10:53:39;;;;;;;7.33;5.33;;;;;;;;;;5009265;28;20214;-51
2023/09/16 10:56:14;;;;;;;4.87;4.40;;;;;;;;;;5006176;28;20189;-53
2023/09/16 10:58:41;;;;;;;5.77;5.27;;;;;;;;;;5006153;28;20803;-53
2023/09/16 11:01:08;;;;;;;5.77;4.73;;;;;;;;;;5005890;28;20202;-52
2023/09/16 11:03:37;;;;;;;4.90;4.50;;;;;;;;;;5004638;28;20737;-52
2023/09/16 11:06:03;;;;;;;5.20;4.67;;;;;;;;;;5004991;28;20182;-53
2023/09/16 11:08:29;;;;;;;5.40;5.00;;;;;;;;;;5005507;28;20183;-52
2023/09/16 11:10:56;;;;;;;5.47;4.97;;;;;;;;;;5007018;28;20237;-51
2023/09/16 11:13:23;;;;;;;4.83;4.43;;;;;;;;;;5002067;28;20183;-51
2023/09/16 11:15:49;;;;;;;5.37;4.87;;;;;;;;;;5005441;28;20290;-51
2023/09/16 11:18:18;;;;;;;5.27;4.77;;;;;;;;;;5006806;28;20253;-51
2023/09/16 11:20:45;;;;;;;5.80;5.30;;;;;;;;;;5002255;28;20191;-51
2023/09/16 11:23:12;;;;;;;5.60;4.97;;;;;;;;;;5004911;28;20630;-51
2023/09/16 11:25:42;;;;;;;5.80;5.30;;;;;;;;;;5004898;28;20193;-52
2023/09/16 11:28:15;;;;;;;6.37;5.03;;;;;;;;;;5007281;28;20234;-51
2023/09/16 11:30:46;;;;;;;5.53;4.93;;;;;;;;;;5008162;28;20217;-50
2023/09/16 11:33:31;;;;;;;5.57;5.07;;;;;;;;;;5007998;28;20555;-51
2023/09/16 11:36:27;;;;;;;5.30;4.90;;;;;;;;;;5006294;28;20190;-51
2023/09/16 11:38:58;;;;;;;9.07;4.97;;;;;;;;;;4989704;28;20864;-51
2023/09/16 11:41:24;;;;;;;5.90;4.83;;;;;;;;;;5004878;28;20178;-51
2023/09/16 11:43:51;;;;;;;5.30;4.90;;;;;;;;;;5005163;28;20189;-51
2023/09/16 11:46:17;;;;;;;5.50;5.00;;;;;;;;;;5004969;28;20175;-51
2023/09/16 11:48:49;;;;;;;6.30;4.77;;;;;;;;;;5009030;28;20183;-51
2023/09/16 11:51:16;;;;;;;6.60;5.00;;;;;;;;;;5006402;28;20188;-51
2023/09/16 11:53:42;;;;;;;11.20;5.97;;;;;;;;;;5005986;28;20206;-52
2023/09/16 11:56:08;;;;;;;5.10;4.70;;;;;;;;;;5009115;28;20262;-51
2023/09/16 11:58:35;;;;;;;5.77;5.10;;;;;;;;;;5008557;28;20173;-51
2023/09/16 12:01:02;;;;;;;6.63;5.27;;;;;;;;;;4981955;28;20176;-54
2023/09/16 12:03:28;;;;;;;5.60;5.10;;;;;;;;;;5004344;28;20193;-52
2023/09/16 12:05:55;;;;;;;6.97;5.27;;;;;;;;;;5003122;28;20560;-52
2023/09/16 12:08:22;;;;;;;5.17;4.70;;;;;;;;;;5002974;28;20209;-52
2023/09/16 12:10:49;;;;;;;5.77;5.20;;;;;;;;;;5002210;28;20189;-52
2023/09/16 12:13:26;;;;;;;5.40;4.90;;;;;;;;;;5002203;28;20667;-51
2023/09/16 12:15:52;;;;;;;4.43;4.03;;;;;;;;;;5005624;28;20546;-52
2023/09/16 12:18:19;;;;;;;5.60;5.20;;;;;;;;;;5003963;28;20257;-52
2023/09/16 12:20:46;;;;;;;5.73;5.33;;;;;;;;;;5002585;28;20602;-52
2023/09/16 12:23:12;;;;;;;6.67;6.17;;;;;;;;;;5004134;28;20738;-51
2023/09/16 12:25:41;;;;;;;5.53;5.13;;;;;;;;;;5004393;28;20334;-52
2023/09/16 12:28:10;;;;;;;5.27;4.83;;;;;;;;;;5000007;28;20724;-52
2023/09/16 12:30:43;;;;;;;5.47;5.07;;;;;;;;;;5005439;28;20216;-52
2023/09/16 12:33:09;;;;;;;5.33;4.83;;;;;;;;;;5005196;28;20213;-52
2023/09/16 12:35:39;;;;;;;5.47;4.97;;;;;;;;;;5006690;28;20364;-51
2023/09/16 12:38:05;;;;;;;6.18;5.68;;;;;;;;;;5003183;28;20438;-51
2023/09/16 12:40:31;;;;;;;8.33;5.47;;;;;;;;;;5004071;28;20189;-52
2023/09/16 12:42:58;;;;;;;5.63;5.23;;;;;;;;;;5005081;28;20243;-51
2023/09/16 12:45:24;;;;;;;6.90;5.47;;;;;;;;;;5003120;28;20201;-52
2023/09/16 12:47:51;;;;;;;5.30;4.90;;;;;;;;;;5003920;28;20202;-52
2023/09/16 12:50:17;;;;;;;5.50;5.10;;;;;;;;;;4997897;28;20273;-51
2023/09/16 12:52:44;;;;;;;5.27;4.87;;;;;;;;;;5002621;28;20277;-52
2023/09/16 12:55:16;;;;;;;6.07;5.47;;;;;;;;;;4987367;28;20570;-50
2023/09/16 12:57:43;;;;;;;5.70;5.30;;;;;;;;;;5004678;28;20645;-51
2023/09/16 13:00:15;;;;;;;6.18;5.57;;;;;;;;;;5006739;28;20907;-51
2023/09/16 13:02:41;;;;;;;5.87;5.27;;;;;;;;;;5003189;28;20185;-52
2023/09/16 13:05:11;;;;;;;6.60;6.00;;;;;;;;;;5003674;28;20294;-52
2023/09/16 13:07:38;;;;;;;5.80;5.30;;;;;;;;;;4996331;28;20249;-53
2023/09/16 13:10:05;;;;;;;6.23;5.73;;;;;;;;;;5005810;28;20184;-53
2023/09/16 13:12:31;;;;;;;5.43;4.93;;;;;;;;;;5003175;28;20630;-51
2023/09/16 13:14:58;;;;;;;5.70;5.20;;;;;;;;;;5004708;28;20206;-51
2023/09/16 13:17:24;;;;;;;6.43;5.10;;;;;;;;;;5005342;28;20616;-51
2023/09/16 13:19:51;;;;;;;6.03;5.43;;;;;;;;;;4987367;28;20179;-51
2023/09/16 13:22:18;;;;;;;6.03;5.50;;;;;;;;;;5001119;28;20468;-52
2023/09/16 13:24:45;;;;;;;6.27;5.67;;;;;;;;;;5003397;28;20531;-53
2023/09/16 13:27:18;;;;;;;5.50;5.00;;;;;;;;;;5002864;28;20227;-52
2023/09/16 13:29:45;;;;;;;6.30;5.60;;;;;;;;;;5005250;28;20350;-52
2023/09/16 13:32:11;;;;;;;7.60;4.80;;;;;;;;;;5000224;28;20705;-53
2023/09/16 13:34:41;;;;;;;5.73;5.10;;;;;;;;;;5005249;28;20205;-52
2023/09/16 13:37:08;;;;;;;10.60;5.80;;;;;;;;;;4997079;28;20202;-55
2023/09/16 13:39:44;;;;;;;5.47;4.97;;;;;;;;;;5001301;28;20186;-52
2023/09/16 13:42:10;;;;;;;6.87;5.40;;;;;;;;;;5007016;28;20186;-53
2023/09/16 13:44:36;;;;;;;5.53;5.10;;;;;;;;;;5006691;28;20197;-53
2023/09/16 13:47:03;;;;;;;5.70;5.20;;;;;;;;;;5003998;28;20360;-53
2023/09/16 13:49:32;;;;;;;5.20;4.80;;;;;;;;;;5006738;28;20536;-53
2023/09/16 13:51:58;;;;;;;6.83;5.53;;;;;;;;;;5004157;28;20177;-53
2023/09/16 13:54:24;;;;;;;5.90;5.40;;;;;;;;;;5004955;28;20330;-55
2023/09/16 13:56:51;;;;;;;7.67;5.23;;;;;;;;;;5004189;28;20178;-53
2023/09/16 13:59:17;;;;;;;6.33;5.47;;;;;;;;;;5008901;28;20199;-53
2023/09/16 14:01:44;;;;;;;6.80;5.07;;;;;;;;;;5009217;28;20568;-53
2023/09/16 14:04:10;;;;;;;6.57;6.00;;;;;;;;;;5008725;28;20598;-53
2023/09/16 14:06:36;;;;;;;6.27;5.60;;;;;;;;;;5008027;28;20227;-50
2023/09/16 14:09:02;;;;;;;5.90;5.30;;;;;;;;;;5007235;28;20183;-51
2023/09/16 14:11:28;;;;;;;6.13;5.53;;;;;;;;;;5009412;28;20192;-52
2023/09/16 14:13:54;;;;;;;5.00;4.60;;;;;;;;;;5005932;28;20210;-52
2023/09/16 14:16:20;;;;;;;6.63;5.40;;;;;;;;;;5006766;28;20241;-52
2023/09/16 14:18:46;;;;;;;5.53;5.07;;;;;;;;;;5007559;28;20180;-52
2023/09/16 14:21:12;;;;;;;6.63;6.10;;;;;;;;;;5008648;28;20511;-52
2023/09/16 14:23:39;;;;;;;5.83;5.43;;;;;;;;;;5008790;28;20182;-50
2023/09/16 14:26:05;;;;;;;5.67;5.23;;;;;;;;;;5006253;28;20199;-52
2023/09/16 14:28:32;;;;;;;5.60;5.10;;;;;;;;;;4996624;28;20295;-51
2023/09/16 14:31:05;;;;;;;6.10;5.47;;;;;;;;;;5006773;28;20234;-51
2023/09/16 14:33:32;;;;;;;5.73;5.00;;;;;;;;;;5006049;28;20262;-50
2023/09/16 14:36:00;;;;;;;5.87;5.37;;;;;;;;;;4986432;28;20211;-51
2023/09/16 14:38:26;;;;;;;7.70;5.27;;;;;;;;;;5005474;28;20255;-51
2023/09/16 14:40:52;;;;;;;6.03;5.53;;;;;;;;;;5009598;28;20307;-51
2023/09/16 14:43:18;;;;;;;5.43;5.03;;;;;;;;;;5006187;28;20212;-52